Time;durP1;ratioP1;P1;durP2;ratioP2;P2;SDS_P1;SDS_P2;PMS_P1;PMS_P2;Temp;Humidity;BMP_temperature;BMP_pressure;BME280_temperature;BME280_humidity;BME280_pressure;Samples;Min_cycle;Max_cycle;Signal;HPM_P1;HPM_P2
2022/02/18 00:00:54;;;;;;;10.97;3.60;;;;;;;4.50;69.22;97506.02;2182858;82;20970;-83
2022/02/18 00:03:55;;;;;;;11.30;2.83;;;;;;;4.51;70.23;97502.59;2183128;82;21050;-81
2022/02/18 00:06:56;;;;;;;8.10;2.53;;;;;;;4.48;69.35;97506.88;2183686;82;21042;-83
2022/02/18 00:09:56;;;;;;;7.97;2.90;;;;;;;4.51;68.60;97527.14;2184224;82;20926;-82
2022/02/18 00:12:57;;;;;;;7.23;3.17;;;;;;;4.52;68.20;97538.80;2184382;82;20935;-83
2022/02/18 00:15:58;;;;;;;9.67;2.80;;;;;;;4.53;67.87;97550.00;2184088;82;21041;-83
2022/02/18 00:18:58;;;;;;;8.97;2.70;;;;;;;4.52;67.71;97543.96;2184589;82;20950;-83
2022/02/18 00:21:59;;;;;;;8.90;2.67;;;;;;;4.51;66.85;97552.56;2184107;82;20963;-82
2022/02/18 00:24:59;;;;;;;6.20;2.20;;;;;;;4.48;66.21;97542.17;2184160;82;20949;-82
2022/02/18 00:28:02;;;;;;;9.87;2.33;;;;;;;4.46;66.08;97549.91;2184080;82;20900;-84
2022/02/18 00:31:02;;;;;;;13.37;2.50;;;;;;;4.47;65.59;97565.86;2184128;81;21041;-82
2022/02/18 00:34:02;;;;;;;7.80;2.20;;;;;;;4.47;65.97;97559.81;2184134;82;20970;-82
2022/02/18 00:37:03;;;;;;;8.83;2.20;;;;;;;4.47;65.44;97577.91;2184090;82;20939;-83
2022/02/18 00:40:03;;;;;;;12.37;2.50;;;;;;;4.50;65.67;97559.00;2184044;82;20930;-82
2022/02/18 00:43:04;;;;;;;8.00;2.87;;;;;;;4.49;65.58;97573.62;2184219;82;20955;-83
2022/02/18 00:46:05;;;;;;;6.43;2.30;;;;;;;4.48;65.47;97574.05;2174363;81;21624;-84
2022/02/18 00:49:05;;;;;;;6.30;2.13;;;;;;;4.48;65.77;97556.39;2153566;83;21355;-82
2022/02/18 00:52:05;;;;;;;8.57;2.23;;;;;;;4.44;66.73;97566.23;2154535;83;20935;-82
2022/02/18 00:55:06;;;;;;;5.20;2.57;;;;;;;4.37;66.55;97569.14;2154356;83;20924;-83
2022/02/18 00:58:06;;;;;;;6.77;2.80;;;;;;;4.32;66.69;97572.47;2154731;83;20900;-83
2022/02/18 01:01:08;;;;;;;8.30;3.07;;;;;;;4.26;66.97;97584.86;2154580;83;20999;-84
2022/02/18 01:04:09;;;;;;;9.23;2.70;;;;;;;4.21;66.61;97582.63;2154726;83;21003;-83
2022/02/18 01:07:09;;;;;;;7.60;2.50;;;;;;;4.21;67.06;97578.75;2153937;83;20967;-82
2022/02/18 01:10:10;;;;;;;7.60;2.70;;;;;;;4.25;66.50;97601.63;2152990;83;20978;-83
2022/02/18 01:13:10;;;;;;;13.03;2.80;;;;;;;4.34;66.10;97596.22;2153961;83;20904;-84
2022/02/18 01:16:11;;;;;;;5.27;2.30;;;;;;;4.41;65.60;97611.40;2154667;83;21047;-83
2022/02/18 01:19:11;;;;;;;15.10;2.93;;;;;;;4.43;65.50;97615.75;2154596;83;20931;-84
2022/02/18 01:22:12;;;;;;;10.33;2.63;;;;;;;4.45;65.73;97619.22;2154838;83;20956;-85
2022/02/18 01:25:12;;;;;;;14.83;2.40;;;;;;;4.47;65.30;97622.70;2154411;83;20967;-84
2022/02/18 01:28:13;;;;;;;7.40;2.50;;;;;;;4.45;64.54;97620.52;2154735;83;20943;-85
2022/02/18 01:31:13;;;;;;;8.67;2.73;;;;;;;4.47;64.59;97635.63;2154063;83;20970;-84
2022/02/18 01:34:14;;;;;;;9.70;2.50;;;;;;;4.47;64.87;97629.16;2154587;83;21315;-83
2022/02/18 01:37:14;;;;;;;8.60;2.50;;;;;;;4.50;64.63;97648.15;2154018;83;20939;-85
2022/02/18 01:40:15;;;;;;;8.60;2.90;;;;;;;4.51;63.59;97650.75;2153975;83;20978;-84
2022/02/18 01:43:16;;;;;;;7.23;2.70;;;;;;;4.52;63.93;97645.16;2154562;83;21002;-82
2022/02/18 01:46:16;;;;;;;13.10;2.50;;;;;;;4.53;63.19;97657.24;2154343;81;21011;-84
2022/02/18 01:49:17;;;;;;;9.90;2.77;;;;;;;4.52;63.79;97657.66;2154548;83;20896;-84
2022/02/18 01:52:18;;;;;;;7.80;2.30;;;;;;;4.50;63.96;97667.10;2154552;83;20955;-83
2022/02/18 01:55:18;;;;;;;6.87;2.07;;;;;;;4.51;64.28;97662.80;2154613;83;20931;-82
2022/02/18 01:58:19;;;;;;;9.57;2.30;;;;;;;4.50;64.09;97671.41;2154248;83;20982;-84
2022/02/18 02:01:19;;;;;;;9.53;2.47;;;;;;;4.50;64.26;97675.28;2154306;83;20971;-83
2022/02/18 02:04:20;;;;;;;6.33;2.13;;;;;;;4.49;64.25;97682.16;2154216;83;20896;-84
2022/02/18 02:07:20;;;;;;;6.47;2.10;;;;;;;4.51;64.52;97682.19;2154348;83;21290;-82
2022/02/18 02:10:21;;;;;;;8.80;2.60;;;;;;;4.52;64.27;97691.68;2154337;83;20916;-83
2022/02/18 02:13:21;;;;;;;5.97;2.20;;;;;;;4.53;64.21;97696.00;2154666;83;20967;-82
2022/02/18 02:16:22;;;;;;;7.13;2.03;;;;;;;4.55;63.78;97693.89;2154258;83;21023;-83
2022/02/18 02:19:22;;;;;;;6.93;1.90;;;;;;;4.55;63.88;97707.23;2154450;83;20900;-83
2022/02/18 02:22:23;;;;;;;10.80;2.60;;;;;;;4.55;63.19;97690.44;2154408;83;20955;-83
2022/02/18 02:25:24;;;;;;;9.67;2.43;;;;;;;4.56;63.05;97710.27;2154254;83;20931;-83
2022/02/18 02:28:24;;;;;;;5.37;2.07;;;;;;;4.55;63.33;97705.52;2154843;83;20987;-83
2022/02/18 02:31:25;;;;;;;9.33;2.40;;;;;;;4.56;62.38;97702.52;2154037;83;20982;-83
2022/02/18 02:34:27;;;;;;;8.17;2.10;;;;;;;4.55;62.99;97702.07;2135114;83;20991;-83
2022/02/18 02:37:28;;;;;;;6.87;2.17;;;;;;;4.52;62.53;97707.19;2154151;83;21019;-84
2022/02/18 02:40:28;;;;;;;9.00;2.37;;;;;;;4.52;61.74;97705.89;2154673;83;21013;-84
2022/02/18 02:43:29;;;;;;;5.93;2.10;;;;;;;4.52;61.41;97724.85;2154630;83;20974;-82
2022/02/18 02:46:29;;;;;;;8.30;2.87;;;;;;;4.52;62.26;97714.52;2162131;82;21381;-84
2022/02/18 02:49:30;;;;;;;9.87;2.60;;;;;;;4.51;62.01;97710.61;2184185;82;21345;-84
2022/02/18 02:52:30;;;;;;;6.57;2.50;;;;;;;4.50;62.01;97719.20;2184167;82;21362;-84
2022/02/18 02:55:31;;;;;;;9.53;2.50;;;;;;;4.50;61.89;97721.80;2184462;82;20970;-84
2022/02/18 02:58:31;;;;;;;9.97;2.30;;;;;;;4.48;61.80;97721.34;2184499;82;20907;-84
2022/02/18 03:01:32;;;;;;;8.20;2.30;;;;;;;4.47;61.63;97732.52;2184249;82;21002;-84
2022/02/18 03:04:32;;;;;;;8.47;2.10;;;;;;;4.46;61.63;97735.95;2184214;82;20891;-84
2022/02/18 03:07:33;;;;;;;7.67;2.00;;;;;;;4.46;61.30;97737.24;2184243;82;20939;-84
2022/02/18 03:10:35;;;;;;;8.17;1.60;;;;;;;4.44;61.98;97746.68;2164935;82;21030;-83
2022/02/18 03:13:36;;;;;;;9.27;2.43;;;;;;;4.42;61.44;97749.66;2184304;82;20900;-84
2022/02/18 03:16:36;;;;;;;10.23;2.40;;;;;;;4.41;62.00;97753.50;2183977;82;20954;-84
2022/02/18 03:19:37;;;;;;;8.00;2.13;;;;;;;4.39;61.11;97752.61;2184206;82;20946;-83
2022/02/18 03:22:38;;;;;;;8.40;2.10;;;;;;;4.39;60.77;97755.19;2183322;82;21049;-85
2022/02/18 03:25:38;;;;;;;5.23;2.17;;;;;;;4.37;61.76;97753.88;2182818;82;20953;-84
2022/02/18 03:28:39;;;;;;;9.17;2.23;;;;;;;4.35;60.71;97771.05;2184026;82;21033;-84
2022/02/18 03:31:39;;;;;;;8.07;2.13;;;;;;;4.34;61.44;97773.19;2183911;82;20907;-83
2022/02/18 03:34:40;;;;;;;8.90;2.60;;;;;;;4.33;61.24;97781.75;2183905;82;20962;-83
2022/02/18 03:37:40;;;;;;;9.57;2.27;;;;;;;4.32;61.60;97783.01;2183918;82;20938;-84
2022/02/18 03:40:41;;;;;;;6.80;2.30;;;;;;;4.29;61.45;97785.53;2184050;82;20934;-82
2022/02/18 03:43:42;;;;;;;12.27;2.50;;;;;;;4.28;61.77;97801.45;2184166;82;20994;-85
2022/02/18 03:46:42;;;;;;;10.30;2.50;;;;;;;4.26;61.75;97808.30;2183768;81;21006;-84
2022/02/18 03:49:43;;;;;;;6.03;2.37;;;;;;;4.23;61.59;97812.12;2183323;82;20998;-83
2022/02/18 03:52:44;;;;;;;9.23;2.57;;;;;;;4.18;61.61;97825.36;2183890;82;21354;-83
2022/02/18 03:55:44;;;;;;;8.43;2.43;;;;;;;4.16;61.49;97829.63;2183980;82;21023;-84
2022/02/18 03:58:45;;;;;;;10.43;1.97;;;;;;;4.13;62.19;97835.59;2183929;82;20903;-83
2022/02/18 04:01:45;;;;;;;8.90;2.00;;;;;;;4.12;62.27;97835.56;2184126;82;20970;-84
2022/02/18 04:04:46;;;;;;;8.90;2.23;;;;;;;4.08;62.43;97836.34;2183342;82;20966;-83
2022/02/18 04:07:46;;;;;;;5.83;2.17;;;;;;;4.05;62.50;97842.73;2183500;82;20947;-83
2022/02/18 04:10:47;;;;;;;6.67;2.27;;;;;;;4.03;62.86;97848.28;2183862;82;20942;-83
2022/02/18 04:13:48;;;;;;;11.27;2.70;;;;;;;4.00;62.62;97851.67;2182859;82;20941;-85
2022/02/18 04:16:50;;;;;;;8.00;2.93;;;;;;;4.01;62.97;97849.54;2163291;82;21025;-85
2022/02/18 04:19:51;;;;;;;9.87;3.20;;;;;;;4.01;62.77;97853.41;2184127;82;20933;-83
2022/02/18 04:22:51;;;;;;;14.17;2.80;;;;;;;4.03;63.23;97858.19;2183784;82;20935;-86
2022/02/18 04:25:51;;;;;;;14.63;2.70;;;;;;;4.05;62.89;97861.67;2183661;82;21306;-84
2022/02/18 04:28:52;;;;;;;8.53;2.70;;;;;;;4.07;63.11;97879.79;2183386;82;21341;-82
2022/02/18 04:31:52;;;;;;;11.60;2.77;;;;;;;4.09;63.14;97870.36;2183122;82;21338;-84
2022/02/18 04:34:53;;;;;;;11.40;2.47;;;;;;;4.12;62.95;97875.17;2183526;82;21330;-84
2022/02/18 04:37:53;;;;;;;9.33;2.90;;;;;;;4.14;62.88;97881.25;2184238;82;20962;-84
2022/02/18 04:40:54;;;;;;;11.33;3.20;;;;;;;4.16;62.92;97882.57;2183123;82;21000;-83
2022/02/18 04:43:54;;;;;;;6.87;2.63;;;;;;;4.18;62.85;97889.06;2182381;82;21234;-83
2022/02/18 04:46:55;;;;;;;9.50;2.73;;;;;;;4.17;62.41;97899.81;2175247;81;21074;-82
2022/02/18 04:49:55;;;;;;;13.43;3.30;;;;;;;4.16;62.69;97892.48;2153817;83;20956;-83
2022/02/18 04:52:56;;;;;;;10.37;2.67;;;;;;;4.16;62.69;97898.94;2154176;83;20955;-85
2022/02/18 04:55:56;;;;;;;14.60;3.20;;;;;;;4.16;62.53;97908.40;2152926;83;21012;-83
2022/02/18 04:58:57;;;;;;;10.60;3.17;;;;;;;4.16;62.87;97903.23;2153714;83;20928;-84
2022/02/18 05:01:57;;;;;;;13.47;3.13;;;;;;;4.15;63.15;97906.23;2153447;83;21014;-82
2022/02/18 05:04:59;;;;;;;12.50;3.03;;;;;;;4.14;63.27;97907.49;2154431;83;20974;-82
2022/02/18 05:07:59;;;;;;;7.30;2.73;;;;;;;4.15;63.36;97907.95;2154351;83;21977;-84
2022/02/18 05:11:00;;;;;;;14.63;3.40;;;;;;;4.13;63.25;97925.98;2153253;83;20975;-81
2022/02/18 05:14:00;;;;;;;7.93;3.03;;;;;;;4.13;63.47;97919.95;2154013;83;20900;-83
2022/02/18 05:17:01;;;;;;;11.40;2.80;;;;;;;4.12;63.87;97919.50;2153697;83;21047;-82
2022/02/18 05:20:01;;;;;;;11.80;3.40;;;;;;;4.13;63.53;97910.91;2152547;83;20959;-84
2022/02/18 05:23:02;;;;;;;9.77;2.63;;;;;;;4.11;63.65;97925.09;2152202;83;20991;-81
2022/02/18 05:26:02;;;;;;;13.27;2.87;;;;;;;4.09;63.47;97926.77;2151848;83;20970;-82
2022/02/18 05:29:04;;;;;;;11.77;4.10;;;;;;;4.08;63.10;97925.02;2152118;83;20982;-84
2022/02/18 05:32:04;;;;;;;15.97;4.70;;;;;;;4.08;63.42;97930.60;2151085;83;21354;-84
2022/02/18 05:35:05;;;;;;;21.00;5.67;;;;;;;4.06;63.72;97936.15;2152517;83;20955;-83
2022/02/18 05:38:05;;;;;;;14.33;4.17;;;;;;;4.05;63.61;97940.44;2153438;83;20944;-83
2022/02/18 05:41:06;;;;;;;23.53;5.63;;;;;;;4.04;63.08;97935.24;2153600;83;21033;-83
2022/02/18 05:44:06;;;;;;;21.20;5.03;;;;;;;4.04;63.46;97952.03;2153639;83;21120;-81
2022/02/18 05:47:07;;;;;;;24.77;4.30;;;;;;;4.05;63.49;97962.39;2159239;81;21021;-83
2022/02/18 05:50:13;;;;;;;96.67;7.80;;;;;;;4.06;63.49;97960.69;2182164;82;20950;-84
2022/02/18 05:53:14;;;;;;;19.37;4.77;;;;;;;4.07;63.47;97965.02;2182854;82;21006;-84
2022/02/18 05:56:14;;;;;;;15.60;4.90;;;;;;;4.07;63.58;97965.88;2182135;82;20975;-83
2022/02/18 05:59:15;;;;;;;24.03;7.00;;;;;;;4.06;63.33;97965.43;2182694;82;20962;-83
2022/02/18 06:02:15;;;;;;;14.47;4.67;;;;;;;4.08;63.55;97968.92;2183139;82;20974;-84
2022/02/18 06:05:16;;;;;;;33.27;9.20;;;;;;;4.10;63.39;97979.28;2182273;82;21016;-79
2022/02/18 06:08:16;;;;;;;13.93;4.57;;;;;;;4.11;63.47;97987.48;2180419;82;20954;-80
2022/02/18 06:11:17;;;;;;;15.13;4.00;;;;;;;4.10;63.28;97987.91;2180756;82;20969;-80
2022/02/18 06:14:18;;;;;;;22.17;6.87;;;;;;;4.09;63.27;97995.63;2180864;82;21451;-80
2022/02/18 06:17:18;;;;;;;18.70;5.73;;;;;;;4.09;63.54;97998.20;2181224;82;21021;-80
2022/02/18 06:20:19;;;;;;;23.17;6.03;;;;;;;4.11;63.07;98006.86;2180515;82;21053;-81
2022/02/18 06:23:19;;;;;;;15.30;5.23;;;;;;;4.10;63.14;98020.61;2181725;82;20982;-79
2022/02/18 06:26:19;;;;;;;25.13;6.67;;;;;;;4.10;63.14;98023.19;2180998;82;20974;-81
2022/02/18 06:29:20;;;;;;;12.20;3.47;;;;;;;4.07;63.26;98027.86;2180805;82;20957;-81
2022/02/18 06:32:20;;;;;;;25.93;6.43;;;;;;;4.07;63.00;98017.95;2181723;82;21345;-79
2022/02/18 06:35:21;;;;;;;6.90;2.80;;;;;;;4.07;63.15;98023.12;2182257;82;20950;-81
2022/02/18 06:38:21;;;;;;;13.33;3.57;;;;;;;4.05;62.97;98025.66;2182479;82;21014;-81
2022/02/18 06:41:22;;;;;;;8.83;3.37;;;;;;;4.02;63.45;98028.17;2180791;82;21273;-80
2022/02/18 06:44:23;;;;;;;16.73;4.80;;;;;;;4.02;63.38;98037.63;2178370;82;20990;-80
2022/02/18 06:47:23;;;;;;;10.97;4.00;;;;;;;4.04;63.38;98042.00;2179208;81;21139;-79
2022/02/18 06:50:24;;;;;;;13.63;3.87;;;;;;;4.04;63.79;98049.74;2179200;82;21001;-80
2022/02/18 06:53:24;;;;;;;10.50;2.93;;;;;;;4.05;64.31;98047.62;2180633;82;20978;-80
2022/02/18 06:56:25;;;;;;;10.20;3.33;;;;;;;4.09;63.68;98058.89;2180467;82;21353;-81
2022/02/18 06:59:25;;;;;;;15.77;5.57;;;;;;;4.15;63.66;98062.92;2180583;82;21337;-81
2022/02/18 07:02:26;;;;;;;25.37;8.50;;;;;;;4.19;63.91;98056.98;2180151;82;21005;-83
2022/02/18 07:05:26;;;;;;;12.73;4.30;;;;;;;4.25;64.17;98062.30;2179923;82;20958;-82
2022/02/18 07:08:27;;;;;;;12.27;4.50;;;;;;;4.30;63.68;98065.87;2179590;82;21020;-83
2022/02/18 07:11:28;;;;;;;11.73;4.30;;;;;;;4.33;62.96;98083.16;2160322;82;21013;-82
2022/02/18 07:17:34;;;;;;;19.63;8.33;;;;;;;4.41;63.04;98085.12;2161304;82;21533;-82
2022/02/18 07:20:34;;;;;;;16.23;6.50;;;;;;;4.49;63.32;98084.01;2180593;82;21413;-82
2022/02/18 07:23:35;;;;;;;16.43;4.87;;;;;;;4.54;62.87;98086.70;2181572;82;20965;-82
2022/02/18 07:26:35;;;;;;;11.87;4.23;;;;;;;4.55;63.04;98081.98;2182164;82;20973;-80
2022/02/18 07:29:36;;;;;;;14.33;5.00;;;;;;;4.62;63.00;98090.34;2181008;82;21072;-78
2022/02/18 07:32:36;;;;;;;29.83;5.00;;;;;;;4.65;62.58;98099.45;2178835;82;20958;-80
2022/02/18 07:35:37;;;;;;;13.53;4.67;;;;;;;4.74;62.11;98091.91;2180519;82;20962;-80
2022/02/18 07:38:37;;;;;;;11.87;5.20;;;;;;;5.02;61.89;98102.02;2180438;82;21247;-80
2022/02/18 07:41:38;;;;;;;13.93;4.70;;;;;;;5.33;61.06;98086.75;2179778;82;21025;-82
2022/02/18 07:44:38;;;;;;;14.17;4.90;;;;;;;5.57;59.67;98090.66;2180502;82;20997;-82
2022/02/18 07:47:39;;;;;;;17.17;4.80;;;;;;;5.55;60.25;98090.64;2176521;82;21033;-82
2022/02/18 07:50:39;;;;;;;18.77;6.47;;;;;;;5.44;59.48;98087.84;2153240;83;21434;-81
2022/02/18 07:53:41;;;;;;;10.87;3.93;;;;;;;5.38;60.20;98081.67;2152465;83;21365;-82
2022/02/18 07:56:43;;;;;;;10.77;4.23;;;;;;;5.29;59.89;98077.60;2151929;82;21035;-81
2022/02/18 07:59:43;;;;;;;10.57;3.93;;;;;;;5.22;60.37;98088.25;2151763;83;21924;-81
2022/02/18 08:02:44;;;;;;;12.87;4.60;;;;;;;5.44;60.10;98089.55;2151377;83;21034;-83
2022/02/18 08:05:45;;;;;;;15.20;4.03;;;;;;;5.60;59.70;98078.66;2151059;83;20974;-82
2022/02/18 08:08:45;;;;;;;16.40;4.63;;;;;;;5.76;58.69;98084.99;2151634;83;21438;-82
2022/02/18 08:11:46;;;;;;;13.23;3.93;;;;;;;5.64;58.84;98090.81;2151085;83;20971;-81
2022/02/18 08:14:46;;;;;;;8.73;3.07;;;;;;;5.43;58.57;98093.86;2152985;83;20963;-82
2022/02/18 08:17:47;;;;;;;11.50;4.07;;;;;;;5.27;58.65;98096.11;2152142;83;21006;-81
2022/02/18 08:20:47;;;;;;;12.20;4.20;;;;;;;5.50;59.02;98088.37;2151801;83;21010;-83
2022/02/18 08:23:52;;;;;;;14.87;4.40;;;;;;;5.71;59.02;98102.16;2151466;83;20963;-81
2022/02/18 08:26:50;;;;;;;14.37;4.00;;;;;;;5.80;58.49;98102.33;2151006;82;21039;-81
2022/02/18 08:29:51;;;;;;;12.13;2.93;;;;;;;5.78;57.82;98110.50;2152314;83;21422;-83
2022/02/18 08:32:51;;;;;;;14.87;4.37;;;;;;;5.74;57.01;98114.74;2152868;83;20955;-81
2022/02/18 08:35:52;;;;;;;14.70;4.17;;;;;;;5.78;57.71;98117.39;2152313;83;21375;-81
2022/02/18 08:38:52;;;;;;;13.87;3.33;;;;;;;6.14;57.82;98110.36;2151640;83;21450;-82
2022/02/18 08:41:53;;;;;;;12.40;3.40;;;;;;;6.17;57.49;98116.89;2151622;83;20983;-81
2022/02/18 08:44:53;;;;;;;12.70;3.73;;;;;;;6.11;55.94;98124.55;2152346;83;20967;-80
2022/02/18 08:47:54;;;;;;;13.53;4.13;;;;;;;6.07;56.07;98121.45;2152136;81;21050;-81
2022/02/18 08:50:56;;;;;;;12.77;4.30;;;;;;;6.24;56.41;98125.64;2150852;83;20994;-81
2022/02/18 08:53:56;;;;;;;16.57;6.67;;;;;;;6.40;55.45;98123.76;2151749;83;21043;-82
2022/02/18 08:56:57;;;;;;;15.13;4.67;;;;;;;6.53;54.33;98123.11;2151850;83;20998;-80
2022/02/18 08:59:58;;;;;;;14.50;4.47;;;;;;;6.53;55.04;98137.38;2151966;83;21062;-81
2022/02/18 09:02:58;;;;;;;10.37;3.00;;;;;;;6.49;55.48;98126.92;2151805;83;21046;-80
2022/02/18 09:05:59;;;;;;;11.57;4.07;;;;;;;6.63;53.89;98126.72;2151853;83;21280;-82
2022/02/18 09:08:59;;;;;;;19.00;4.93;;;;;;;6.62;54.27;98131.46;2151484;83;20987;-81
2022/02/18 09:12:00;;;;;;;16.47;4.73;;;;;;;6.58;55.22;98130.97;2151702;83;21015;-82
2022/02/18 09:15:00;;;;;;;13.23;3.10;;;;;;;7.05;55.47;98164.16;2150429;83;21015;-82
2022/02/18 09:18:01;;;;;;;9.33;3.00;;;;;;;6.97;52.92;98145.88;2151113;83;20978;-81
2022/02/18 09:21:01;;;;;;;11.77;3.60;;;;;;;6.63;53.62;98152.23;2151458;83;21484;-81
2022/02/18 09:24:02;;;;;;;11.43;3.50;;;;;;;6.36;53.41;98158.25;2152801;83;20975;-82
2022/02/18 09:27:02;;;;;;;12.23;3.70;;;;;;;6.04;54.28;98165.41;2152039;83;20971;-81
2022/02/18 09:30:03;;;;;;;10.03;3.00;;;;;;;5.83;54.97;98164.55;2151005;83;20990;-81
2022/02/18 09:33:03;;;;;;;15.90;3.07;;;;;;;5.79;55.06;98174.81;2151226;83;20982;-81
2022/02/18 09:36:04;;;;;;;19.70;4.03;;;;;;;5.92;55.51;98166.48;2151913;83;20995;-80
2022/02/18 09:39:04;;;;;;;10.77;3.30;;;;;;;6.12;54.56;98186.32;2151938;83;20963;-81
2022/02/18 09:42:05;;;;;;;13.00;3.57;;;;;;;6.39;53.80;98167.38;2152745;83;21002;-80
2022/02/18 09:45:05;;;;;;;13.23;4.10;;;;;;;6.56;53.41;98161.19;2152857;83;20975;-82
2022/02/18 09:48:06;;;;;;;38.20;4.17;;;;;;;6.77;52.51;98167.14;2157062;81;21062;-81
2022/02/18 09:51:11;;;;;;;13.20;2.67;;;;;;;6.96;51.65;98167.91;2181759;82;20973;-80
2022/02/18 09:54:11;;;;;;;13.37;5.20;;;;;;;7.19;51.80;98166.52;2181531;82;20950;-81
2022/02/18 09:57:12;;;;;;;13.47;3.23;;;;;;;7.30;52.14;98163.66;2180968;82;21204;-80
2022/02/18 10:00:12;;;;;;;164.73;13.17;;;;;;;7.34;51.73;98165.86;2180041;82;20989;-82
2022/02/18 10:03:13;;;;;;;11.23;4.00;;;;;;;7.26;51.85;98158.40;2180741;82;21021;-81
2022/02/18 10:06:13;;;;;;;10.87;4.40;;;;;;;7.31;50.68;98164.10;2180956;82;20970;-82
2022/02/18 10:09:14;;;;;;;12.07;3.93;;;;;;;7.32;51.15;98161.08;2181443;82;20950;-81
2022/02/18 10:12:14;;;;;;;12.43;4.17;;;;;;;7.16;50.85;98167.78;2182108;82;21033;-82
2022/02/18 10:15:15;;;;;;;13.20;4.77;;;;;;;7.06;51.13;98162.44;2182780;82;21374;-82
2022/02/18 10:18:15;;;;;;;13.43;4.03;;;;;;;7.24;51.53;98175.67;2181683;82;20997;-81
2022/02/18 10:21:16;;;;;;;12.17;4.43;;;;;;;7.38;50.54;98163.76;2181537;82;21054;-83
2022/02/18 10:24:17;;;;;;;11.70;3.50;;;;;;;7.35;50.75;98167.61;2180942;82;20966;-82
2022/02/18 10:27:17;;;;;;;9.30;2.90;;;;;;;7.53;49.95;98166.55;2181257;82;21513;-81
2022/02/18 10:30:22;;;;;;;11.70;4.30;;;;;;;7.62;48.95;98165.80;2180272;82;21071;-81
2022/02/18 10:33:23;;;;;;;13.13;2.80;;;;;;;7.80;49.52;98154.77;2181614;82;21356;-81
2022/02/18 10:36:23;;;;;;;9.63;3.23;;;;;;;7.98;48.03;98159.77;2182692;82;20987;-80
2022/02/18 10:42:26;;;;;;;11.80;3.23;;;;;;;7.91;47.56;98162.28;2161681;82;21033;-79
2022/02/18 10:45:27;;;;;;;10.97;3.30;;;;;;;7.67;47.99;98154.61;2180284;82;20931;-81
2022/02/18 10:48:28;;;;;;;8.63;3.57;;;;;;;7.59;49.42;98159.27;2174497;81;21450;-80
2022/02/18 10:51:30;;;;;;;7.90;3.23;;;;;;;7.59;49.42;98159.27;2151000;83;21006;-81
2022/02/18 10:54:31;;;;;;;13.00;3.43;;;;;;;7.81;48.23;98156.54;2150915;83;21740;-80
2022/02/18 10:57:31;;;;;;;11.50;3.70;;;;;;;8.14;50.40;98143.91;2151130;83;20986;-80
2022/02/18 11:00:31;;;;;;;8.13;3.00;;;;;;;8.42;48.07;98151.58;2152556;83;21015;-79
2022/02/18 11:03:32;;;;;;;10.37;4.20;;;;;;;8.59;46.52;98153.91;2151690;83;20932;-79
2022/02/18 11:06:32;;;;;;;12.93;4.23;;;;;;;8.71;45.22;98160.10;2151790;83;21335;-78
2022/02/18 11:09:33;;;;;;;13.70;3.37;;;;;;;8.80;45.28;98153.67;2150265;83;21350;-80
2022/02/18 11:12:35;;;;;;;9.67;3.10;;;;;;;8.90;45.31;98151.15;2149419;83;21026;-78
2022/02/18 11:15:36;;;;;;;16.60;3.70;;;;;;;9.14;46.09;98150.44;2148927;83;20995;-78
2022/02/18 11:18:36;;;;;;;7.97;3.27;;;;;;;9.44;45.36;98132.81;2149914;83;21015;-78
2022/02/18 11:21:36;;;;;;;7.63;3.30;;;;;;;9.32;43.31;98152.72;2150429;83;21472;-77
2022/02/18 11:24:38;;;;;;;7.77;3.00;;;;;;;8.97;44.30;98155.09;2151128;83;20987;-79
2022/02/18 11:27:38;;;;;;;11.23;3.50;;;;;;;8.90;44.16;98151.58;2150169;83;21006;-79
2022/02/18 11:30:39;;;;;;;14.97;4.03;;;;;;;8.96;44.74;98144.24;2149990;83;21444;-79
2022/02/18 11:33:40;;;;;;;9.80;3.30;;;;;;;8.77;44.75;98144.54;2149585;83;20999;-77
2022/02/18 11:36:40;;;;;;;7.57;2.70;;;;;;;8.89;44.05;98135.52;2149164;83;21442;-78
2022/02/18 11:39:41;;;;;;;6.47;2.73;;;;;;;8.60;42.09;98132.23;2149461;83;21657;-79
2022/02/18 11:42:41;;;;;;;11.67;3.37;;;;;;;8.58;44.09;98127.88;2147897;83;21073;-79
2022/02/18 11:45:42;;;;;;;7.30;3.07;;;;;;;8.67;43.70;98129.68;2147915;83;21019;-80
2022/02/18 11:48:42;;;;;;;6.00;2.80;;;;;;;8.62;43.21;98122.71;2154064;81;21068;-78
2022/02/18 11:51:43;;;;;;;6.27;2.97;;;;;;;8.70;43.20;98115.00;2178710;82;21025;-80
2022/02/18 11:54:43;;;;;;;10.47;4.73;;;;;;;8.69;43.05;98114.98;2179628;82;20988;-80
2022/02/18 11:57:44;;;;;;;12.67;4.30;;;;;;;8.75;44.35;98104.20;2180255;82;21397;-80
2022/02/18 12:00:45;;;;;;;8.57;4.27;;;;;;;8.82;44.02;98098.17;2181513;82;21457;-80
2022/02/18 12:03:45;;;;;;;11.37;4.60;;;;;;;8.89;43.91;98102.98;2181728;82;20993;-79
2022/02/18 12:06:46;;;;;;;8.40;3.63;;;;;;;9.04;44.64;98104.39;2180667;82;21021;-81
2022/02/18 12:09:46;;;;;;;8.23;3.00;;;;;;;9.18;44.61;98083.63;2180398;82;21025;-80
2022/02/18 12:12:48;;;;;;;6.87;2.50;;;;;;;9.46;43.88;98081.59;2181341;82;21401;-81
2022/02/18 12:15:49;;;;;;;6.80;2.60;;;;;;;9.60;42.64;98085.59;2181229;82;20973;-78
2022/02/18 12:18:49;;;;;;;8.90;2.73;;;;;;;9.58;42.59;98070.38;2180688;82;21009;-80
2022/02/18 12:21:50;;;;;;;14.10;3.17;;;;;;;9.38;42.73;98081.13;2179345;82;21069;-80
2022/02/18 12:24:51;;;;;;;14.10;2.43;;;;;;;9.10;43.86;98073.61;2180497;82;21009;-79
2022/02/18 12:27:51;;;;;;;8.83;3.50;;;;;;;8.83;43.57;98069.98;2180036;82;21047;-79
2022/02/18 12:30:52;;;;;;;10.17;3.97;;;;;;;8.77;44.64;98066.05;2180519;82;21037;-79
2022/02/18 12:33:52;;;;;;;8.13;3.63;;;;;;;8.82;44.48;98072.15;2181214;82;21235;-81
2022/02/18 12:36:52;;;;;;;12.40;3.63;;;;;;;8.89;44.44;98062.22;2182240;82;20967;-81
2022/02/18 12:39:57;;;;;;;11.20;3.40;;;;;;;8.93;44.71;98048.79;2182648;82;21021;-81
2022/02/18 12:42:55;;;;;;;10.70;3.80;;;;;;;8.82;44.52;98051.77;2180853;81;21032;-80
2022/02/18 12:45:56;;;;;;;12.67;3.43;;;;;;;8.80;45.38;98051.75;2181148;82;20978;-81
2022/02/18 12:48:57;;;;;;;7.23;3.10;;;;;;;8.77;45.92;98052.16;2175516;82;21011;-79
2022/02/18 12:51:59;;;;;;;8.40;3.60;;;;;;;8.86;46.20;98047.89;2133052;83;21010;-79
2022/02/18 12:55:00;;;;;;;7.40;3.03;;;;;;;8.92;46.29;98045.75;2151415;83;21956;-80
2022/02/18 12:58:00;;;;;;;5.93;3.10;;;;;;;8.94;45.86;98042.29;2151059;83;20983;-79
2022/02/18 13:01:01;;;;;;;14.77;5.57;;;;;;;9.02;44.58;98035.83;2149565;83;21023;-79
2022/02/18 13:04:01;;;;;;;13.17;3.60;;;;;;;9.14;43.72;98029.80;2149069;83;20967;-77
2022/02/18 13:07:02;;;;;;;11.77;2.67;;;;;;;9.22;43.89;98035.91;2150147;83;20963;-81
2022/02/18 13:10:02;;;;;;;7.23;2.70;;;;;;;9.12;44.38;98015.91;2151788;83;20975;-81
2022/02/18 13:13:03;;;;;;;14.70;3.30;;;;;;;9.14;44.13;98029.80;2152243;83;20990;-81
2022/02/18 13:16:03;;;;;;;6.93;2.70;;;;;;;9.11;44.70;98029.80;2151982;83;20931;-79
2022/02/18 13:19:04;;;;;;;8.90;2.70;;;;;;;9.13;44.26;98021.55;2152037;83;20967;-78
2022/02/18 13:22:04;;;;;;;12.70;3.10;;;;;;;9.18;44.59;98019.84;2149107;83;21061;-81
2022/02/18 13:25:05;;;;;;;11.17;2.80;;;;;;;9.26;45.90;98015.53;2150951;83;20947;-83
2022/02/18 13:28:06;;;;;;;7.03;2.60;;;;;;;9.26;44.11;97999.48;2150816;83;21410;-82
2022/02/18 13:31:06;;;;;;;10.90;2.83;;;;;;;9.18;44.75;97993.80;2150226;83;21069;-83
2022/02/18 13:34:07;;;;;;;14.23;2.77;;;;;;;9.23;45.03;97992.09;2150207;83;21014;-83
2022/02/18 13:37:08;;;;;;;8.03;2.43;;;;;;;9.28;44.52;97996.87;2150634;83;21417;-83
2022/02/18 13:40:08;;;;;;;10.93;2.80;;;;;;;9.19;44.98;97985.12;2151079;83;21378;-79
2022/02/18 13:43:09;;;;;;;8.63;2.40;;;;;;;9.10;45.18;97976.85;2151037;83;21030;-82
2022/02/18 13:46:09;;;;;;;8.40;2.97;;;;;;;9.05;45.06;97963.38;2151101;83;20983;-83
2022/02/18 13:49:10;;;;;;;8.57;2.73;;;;;;;8.94;45.62;97964.64;2151230;81;21018;-83
2022/02/18 13:52:11;;;;;;;9.60;2.83;;;;;;;8.97;46.02;97953.37;2152386;83;21762;-82
2022/02/18 13:55:11;;;;;;;7.43;2.60;;;;;;;8.90;46.47;97950.74;2151550;83;20987;-82
2022/02/18 13:58:12;;;;;;;7.00;2.60;;;;;;;9.76;47.45;97937.95;2152535;83;20943;-83
2022/02/18 14:01:13;;;;;;;7.70;2.63;;;;;;;9.70;45.76;97945.33;2151803;83;20990;-82
2022/02/18 14:04:13;;;;;;;9.63;2.77;;;;;;;9.49;45.47;97946.58;2151472;83;21193;-83
2022/02/18 14:07:14;;;;;;;11.23;2.60;;;;;;;9.35;45.34;97936.13;2150976;83;21047;-83
2022/02/18 14:10:15;;;;;;;11.10;3.47;;;;;;;9.21;44.13;97932.62;2150949;83;21394;-84
2022/02/18 14:13:15;;;;;;;10.47;2.30;;;;;;;9.11;45.69;97934.33;2151430;83;20998;-81
2022/02/18 14:16:16;;;;;;;7.97;2.80;;;;;;;9.14;45.03;97938.67;2151634;83;20967;-83
2022/02/18 14:19:17;;;;;;;8.73;2.87;;;;;;;9.19;45.36;97923.94;2151610;83;20998;-83